Time;durP1;ratioP1;P1;durP2;ratioP2;P2;SDS_P1;SDS_P2;PMS_P1;PMS_P2;Temp;Humidity;BMP_temperature;BMP_pressure;BME280_temperature;BME280_humidity;BME280_pressure;Samples;Min_cycle;Max_cycle;Signal;HPM_P1;HPM_P2
2024/03/24 00:04:26;;;;;;;13.03;5.60;;;;;;;2.99;100.00;99491.85;4916375;58;1136508;-82
2024/03/24 00:09:31;;;;;;;10.53;5.77;;;;;;;3.02;100.00;99501.27;4938326;58;1145819;-84
2024/03/24 00:14:37;;;;;;;10.95;4.47;;;;;;;3.02;100.00;99494.74;4875311;58;1136926;-83
2024/03/24 00:19:42;;;;;;;13.13;5.13;;;;;;;3.05;100.00;99495.86;4840008;59;1136975;-82
2024/03/24 00:24:49;;;;;;;14.58;5.53;;;;;;;3.03;100.00;99493.81;4858857;59;1136808;-82
2024/03/24 00:29:54;;;;;;;9.68;5.65;;;;;;;3.03;100.00;99495.95;4872739;59;1136750;-85
2024/03/24 00:35:00;;;;;;;30.17;12.97;;;;;;;3.05;100.00;99489.33;4888613;59;1134348;-84
2024/03/24 00:40:09;;;;;;;16.13;6.70;;;;;;;3.09;100.00;99489.02;5005745;57;1138433;-85
2024/03/24 00:45:14;;;;;;;17.27;6.73;;;;;;;3.10;100.00;99479.41;4982871;58;1136884;-83
2024/03/24 00:50:19;;;;;;;16.00;7.00;;;;;;;3.09;100.00;99477.73;4968186;58;1136371;-82
2024/03/24 00:55:26;;;;;;;15.18;6.67;;;;;;;3.10;100.00;99472.88;4967930;58;1136317;-83
2024/03/24 01:00:32;;;;;;;15.53;5.20;;;;;;;3.11;100.00;99476.70;4987543;58;1136293;-84
2024/03/24 01:05:37;;;;;;;13.13;4.63;;;;;;;3.14;100.00;99471.29;4967690;57;1136601;-86
2024/03/24 01:10:43;;;;;;;8.13;5.00;;;;;;;3.12;100.00;99463.17;5049966;57;1136359;-85
2024/03/24 01:15:48;;;;;;;9.17;5.23;;;;;;;3.07;100.00;99464.77;5050218;57;1134698;-85
2024/03/24 01:20:55;;;;;;;9.50;5.27;;;;;;;3.04;100.00;99461.06;5069824;57;1134312;-86
2024/03/24 01:26:00;;;;;;;19.37;6.77;;;;;;;3.02;100.00;99458.17;5049828;57;1134359;-87
2024/03/24 01:31:06;;;;;;;8.87;5.10;;;;;;;2.99;100.00;99456.59;5041664;57;1136726;-84
2024/03/24 01:36:12;;;;;;;8.40;5.30;;;;;;;2.96;100.00;99448.11;4946763;58;1134388;-88
2024/03/24 01:41:17;;;;;;;11.37;6.17;;;;;;;2.91;100.00;99443.63;4867801;58;1134663;-84
2024/03/24 01:46:24;;;;;;;6.93;5.30;;;;;;;2.88;100.00;99446.46;4839016;59;1136763;-87
2024/03/24 01:51:29;;;;;;;6.45;4.62;;;;;;;2.81;100.00;99442.08;4871832;58;1134286;-87
2024/03/24 01:56:35;;;;;;;11.33;4.77;;;;;;;2.80;100.00;99442.55;4916640;58;1134324;-85
2024/03/24 02:01:42;;;;;;;9.20;4.62;;;;;;;2.80;100.00;99440.41;4916020;58;1136734;-85
2024/03/24 02:06:48;;;;;;;7.87;4.92;;;;;;;2.77;100.00;99438.81;4916735;58;1134731;-84
2024/03/24 02:11:53;;;;;;;5.60;3.90;;;;;;;2.77;100.00;99437.98;4935951;58;1134931;-86
2024/03/24 02:17:01;;;;;;;8.73;4.47;;;;;;;2.73;100.00;99437.36;4917114;58;1134497;-88
2024/03/24 02:22:07;;;;;;;9.10;4.77;;;;;;;2.70;100.00;99432.32;4916656;58;1136037;-86
2024/03/24 02:27:12;;;;;;;8.00;4.27;;;;;;;2.70;100.00;99428.41;4935724;58;1134446;-85
2024/03/24 02:32:18;;;;;;;7.70;4.10;;;;;;;2.68;100.00;99429.43;4916815;58;1134656;-88
2024/03/24 02:37:23;;;;;;;5.53;4.43;;;;;;;2.64;100.00;99428.77;4999433;58;1134761;-87
2024/03/24 02:42:29;;;;;;;5.90;4.00;;;;;;;2.58;100.00;99426.56;4988154;57;1134492;-85
2024/03/24 02:47:35;;;;;;;9.77;4.53;;;;;;;2.61;100.00;99424.20;4948701;58;1134652;-86
2024/03/24 02:52:40;;;;;;;11.30;4.57;;;;;;;2.62;100.00;99416.28;4948628;58;1134424;-86
2024/03/24 02:57:46;;;;;;;10.98;5.50;;;;;;;2.61;100.00;99415.06;4947936;58;1136800;-85
2024/03/24 03:02:51;;;;;;;13.83;6.00;;;;;;;2.59;100.00;99411.75;5044506;57;1136342;-85
2024/03/24 03:07:58;;;;;;;9.67;4.83;;;;;;;2.60;100.00;99409.51;5029713;57;1136325;-86
2024/03/24 03:13:04;;;;;;;7.13;5.60;;;;;;;2.58;100.00;99407.45;5029876;57;1134300;-87
2024/03/24 03:18:10;;;;;;;8.90;5.07;;;;;;;2.60;100.00;99406.40;5049781;57;1134406;-85
2024/03/24 03:23:15;;;;;;;9.03;5.07;;;;;;;2.61;100.00;99406.77;5030071;57;1134638;-85
2024/03/24 03:28:21;;;;;;;7.27;4.80;;;;;;;2.62;100.00;99407.14;5006597;57;1134702;-82
2024/03/24 03:33:27;;;;;;;13.90;6.97;;;;;;;2.64;100.00;99404.45;5020022;57;1134343;-84
2024/03/24 03:38:33;;;;;;;6.70;4.80;;;;;;;2.64;100.00;99409.20;5024563;57;1136409;-82
2024/03/24 03:43:39;;;;;;;8.77;5.93;;;;;;;2.66;100.00;99404.72;4977358;57;1134160;-83
2024/03/24 03:48:45;;;;;;;14.07;6.00;;;;;;;2.65;100.00;99395.68;4968309;57;1134683;-83
2024/03/24 03:53:51;;;;;;;6.83;5.17;;;;;;;2.64;100.00;99394.00;4987289;58;1137081;-86
2024/03/24 03:58:56;;;;;;;10.57;6.00;;;;;;;2.60;100.00;99397.77;5042980;57;1134358;-82
2024/03/24 04:04:02;;;;;;;9.27;6.13;;;;;;;2.55;100.00;99405.03;5050111;57;1136405;-84
2024/03/24 04:09:09;;;;;;;8.20;6.07;;;;;;;2.52;100.00;99406.06;5069694;57;1134183;-84
2024/03/24 04:14:15;;;;;;;6.97;5.73;;;;;;;2.54;100.00;99411.19;5050290;57;1134652;-83
2024/03/24 04:19:20;;;;;;;11.20;6.77;;;;;;;2.55;100.00;99407.17;5050325;57;1134593;-83
2024/03/24 04:24:26;;;;;;;9.95;7.12;;;;;;;2.57;100.00;99404.01;5006877;57;1136554;-81
2024/03/24 04:29:31;;;;;;;16.17;7.87;;;;;;;2.57;100.00;99404.01;4968076;58;1134709;-83
2024/03/24 04:34:38;;;;;;;13.03;7.70;;;;;;;2.56;100.00;99399.72;4967945;58;1136465;-80
2024/03/24 04:39:43;;;;;;;10.07;6.93;;;;;;;2.54;100.00;99402.89;4955204;58;1136529;-80
2024/03/24 04:44:49;;;;;;;11.13;7.50;;;;;;;2.54;100.00;99405.97;4968261;58;1136503;-84
2024/03/24 04:49:55;;;;;;;10.37;6.93;;;;;;;2.54;100.00;99400.74;4948314;58;1136770;-83
2024/03/24 04:55:01;;;;;;;10.53;7.03;;;;;;;2.57;100.00;99395.34;5019850;57;1136285;-82
2024/03/24 05:00:07;;;;;;;10.40;7.20;;;;;;;2.62;100.00;99398.02;5050016;57;1136339;-82
2024/03/24 05:05:15;;;;;;;9.40;7.40;;;;;;;2.69;100.00;99398.48;4856301;59;1136394;-81
2024/03/24 05:10:20;;;;;;;30.63;13.87;;;;;;;2.75;100.00;99398.10;4870510;59;1134749;-83
2024/03/24 05:15:28;;;;;;;13.75;7.62;;;;;;;2.80;100.00;99402.55;4888772;59;1138390;-81
2024/03/24 05:20:36;;;;;;;14.13;8.00;;;;;;;2.82;100.00;99405.90;4966981;57;1136539;-84
2024/03/24 05:25:42;;;;;;;9.47;6.33;;;;;;;2.85;100.00;99405.71;4933121;58;1136335;-83
2024/03/24 05:30:52;;;;;;;14.40;6.83;;;;;;;2.88;100.00;99403.38;4986457;57;1134821;-82
2024/03/24 05:36:03;;;;;;;12.07;7.90;;;;;;;2.83;100.00;99407.58;5019904;57;1136582;-85
2024/03/24 05:41:10;;;;;;;9.90;6.17;;;;;;;2.81;100.00;99412.05;4993849;57;1136823;-85
2024/03/24 05:46:15;;;;;;;12.23;6.73;;;;;;;2.81;100.00;99419.89;4969774;57;1134452;-85
2024/03/24 05:51:21;;;;;;;8.47;6.53;;;;;;;2.79;100.00;99405.62;5048039;57;1136819;-85
2024/03/24 05:56:26;;;;;;;10.15;6.62;;;;;;;2.77;100.00;99402.27;4967279;58;1134529;-83
2024/03/24 06:01:32;;;;;;;9.83;7.45;;;;;;;2.80;100.00;99405.99;4944194;58;1136690;-86
2024/03/24 06:06:38;;;;;;;10.87;6.17;;;;;;;2.81;100.00;99395.92;4906768;58;1134454;-82
2024/03/24 06:11:43;;;;;;;10.50;6.90;;;;;;;2.81;100.00;99395.92;4887595;58;1136767;-86
2024/03/24 06:16:49;;;;;;;28.67;13.68;;;;;;;2.83;100.00;99393.22;4974199;57;1136573;-86
2024/03/24 06:21:55;;;;;;;13.70;7.90;;;;;;;2.90;100.00;99394.98;4992083;57;1138549;-82
2024/03/24 06:27:00;;;;;;;12.07;7.87;;;;;;;2.95;100.00;99390.28;4989736;57;1136502;-87
2024/03/24 06:32:06;;;;;;;9.20;5.60;;;;;;;2.97;100.00;99391.86;4989196;57;1136755;-85
2024/03/24 06:37:12;;;;;;;9.83;6.70;;;;;;;3.07;100.00;99390.78;4986639;57;1134390;-86
2024/03/24 06:42:20;;;;;;;16.20;9.07;;;;;;;3.20;100.00;99394.77;4951392;57;1135181;-83
2024/03/24 06:47:25;;;;;;;12.53;7.27;;;;;;;3.24;100.00;99399.67;4988630;57;1136914;-83
2024/03/24 06:52:31;;;;;;;9.45;6.80;;;;;;;3.24;100.00;99388.39;4960352;57;1136748;-83
2024/03/24 06:57:36;;;;;;;11.88;7.25;;;;;;;3.17;100.00;99389.27;4889830;58;1134662;-81
2024/03/24 07:02:42;;;;;;;14.50;8.20;;;;;;;3.17;100.00;99386.20;4887415;58;1136711;-87
2024/03/24 07:07:49;;;;;;;13.50;8.53;;;;;;;3.17;100.00;99386.20;4887515;58;1136578;-87
2024/03/24 07:12:54;;;;;;;14.93;7.90;;;;;;;3.17;100.00;99384.89;4907204;58;1136693;-87
2024/03/24 07:18:00;;;;;;;14.93;10.40;;;;;;;3.22;100.00;99387.64;4888105;58;1136748;-87
2024/03/24 07:23:05;;;;;;;18.97;9.87;;;;;;;3.24;100.00;99400.14;4919351;58;1138800;-87
2024/03/24 07:28:11;;;;;;;11.53;9.03;;;;;;;3.29;100.00;99393.69;4987081;58;1136792;-85
2024/03/24 07:33:17;;;;;;;9.83;7.40;;;;;;;3.35;100.00;99401.14;4967218;57;1136544;-85
2024/03/24 07:38:23;;;;;;;12.20;8.50;;;;;;;3.35;100.00;99408.98;4976486;57;1134494;-86
2024/03/24 07:43:29;;;;;;;12.87;7.70;;;;;;;3.28;100.00;99388.56;4947155;57;1136513;-86
2024/03/24 07:48:34;;;;;;;20.62;9.20;;;;;;;3.46;100.00;99409.10;4925122;58;1136589;-84
2024/03/24 07:53:40;;;;;;;9.93;7.05;;;;;;;3.46;100.00;99408.27;4930308;58;1136802;-84
2024/03/24 07:58:45;;;;;;;9.47;6.93;;;;;;;3.46;100.00;99404.34;4928195;58;1134456;-87
2024/03/24 08:03:51;;;;;;;14.93;9.03;;;;;;;3.53;100.00;99405.59;4945097;58;1134494;-86
2024/03/24 08:08:56;;;;;;;11.77;6.10;;;;;;;3.65;100.00;99408.72;4955657;57;1136652;-87
2024/03/24 08:14:02;;;;;;;10.73;7.87;;;;;;;3.74;100.00;99406.78;4950947;57;1136848;-87
2024/03/24 08:19:08;;;;;;;10.05;7.37;;;;;;;3.77;100.00;99402.66;4910271;58;1136402;-86
2024/03/24 08:24:13;;;;;;;13.43;5.83;;;;;;;3.84;100.00;99399.98;4888006;58;1136492;-83
2024/03/24 08:29:19;;;;;;;18.20;8.93;;;;;;;3.91;100.00;99402.20;4888006;58;1136479;-87
2024/03/24 08:34:25;;;;;;;7.60;6.83;;;;;;;3.96;100.00;99406.66;4943455;57;1136551;-85
2024/03/24 08:39:30;;;;;;;12.05;8.53;;;;;;;4.00;100.00;99403.70;5037159;57;1134444;-87
2024/03/24 08:44:36;;;;;;;17.15;8.45;;;;;;;4.01;100.00;99398.84;4948886;58;1136812;-85
2024/03/24 08:49:42;;;;;;;12.03;8.90;;;;;;;4.03;100.00;99406.59;4952045;58;1136608;-86
2024/03/24 08:54:47;;;;;;;10.03;8.50;;;;;;;4.04;100.00;99403.87;4993635;57;1136287;-89
2024/03/24 08:59:59;;;;;;;12.53;7.20;;;;;;;4.10;100.00;99396.92;4967031;58;1136715;-85
2024/03/24 09:05:01;;;;;;;6.93;5.23;;;;;;;4.13;100.00;99396.68;4989519;57;1136451;-83
2024/03/24 09:10:07;;;;;;;8.47;6.00;;;;;;;4.12;100.00;99391.58;5002900;57;1134688;-83
2024/03/24 09:15:13;;;;;;;12.57;6.47;;;;;;;4.07;100.00;99393.67;4940076;58;1134528;-83
2024/03/24 09:20:19;;;;;;;9.85;7.47;;;;;;;4.13;100.00;99385.38;4951666;58;1136618;-83
2024/03/24 09:25:26;;;;;;;13.53;6.30;;;;;;;4.28;100.00;99383.50;4907527;58;1134520;-84
2024/03/24 09:30:32;;;;;;;7.50;5.60;;;;;;;4.50;100.00;99388.42;4887568;58;1138647;-85
2024/03/24 09:35:37;;;;;;;9.10;6.05;;;;;;;4.79;100.00;99373.25;5008681;57;1136778;-83
2024/03/24 09:40:43;;;;;;;9.67;6.50;;;;;;;4.95;100.00;99380.83;5022746;57;1134607;-83
2024/03/24 09:45:49;;;;;;;14.77;6.70;;;;;;;5.13;100.00;99372.11;4969332;57;1136644;-85
2024/03/24 09:50:58;;;;;;;17.82;7.10;;;;;;;5.34;100.00;99369.23;4917057;57;1138525;-85
2024/03/24 09:56:07;;;;;;;7.97;6.47;;;;;;;5.35;100.00;99367.44;4900395;58;1136405;-86
2024/03/24 10:01:14;;;;;;;9.20;5.17;;;;;;;5.39;100.00;99369.70;4902327;58;1134753;-86
2024/03/24 10:06:22;;;;;;;17.30;6.50;;;;;;;5.55;100.00;99357.58;4915712;58;1136611;-85
2024/03/24 10:11:33;;;;;;;64.83;20.40;;;;;;;5.69;100.00;99352.60;4914953;58;1138640;-86
2024/03/24 10:16:39;;;;;;;30.10;10.83;;;;;;;5.74;100.00;99346.54;4919514;58;1138770;-85
2024/03/24 10:21:46;;;;;;;13.80;6.33;;;;;;;5.74;100.00;99347.85;4874089;59;1138625;-87
2024/03/24 10:26:52;;;;;;;11.37;5.23;;;;;;;5.75;100.00;99338.55;4914797;58;1145580;-85
2024/03/24 10:31:59;;;;;;;5.63;4.53;;;;;;;5.82;100.00;99335.80;4941112;57;1136295;-86
2024/03/24 10:37:04;;;;;;;20.90;8.97;;;;;;;5.92;100.00;99338.61;4808623;59;1134856;-85
2024/03/24 10:42:10;;;;;;;7.93;3.87;;;;;;;6.00;100.00;99321.30;4905755;58;1136667;-82
2024/03/24 10:47:16;;;;;;;11.37;4.60;;;;;;;6.23;100.00;99315.58;4915494;58;1136532;-84
2024/03/24 10:52:23;;;;;;;22.60;9.00;;;;;;;6.59;100.00;99302.59;4954588;58;1136825;-83
2024/03/24 10:57:29;;;;;;;11.50;6.78;;;;;;;7.01;100.00;99312.75;5019247;57;1138802;-86
2024/03/24 11:02:36;;;;;;;12.47;5.53;;;;;;;7.11;100.00;99295.73;5018444;57;1136565;-84
2024/03/24 11:07:42;;;;;;;16.05;8.25;;;;;;;7.00;100.00;99296.62;4926404;57;1136456;-83
2024/03/24 11:12:48;;;;;;;12.80;4.00;;;;;;;6.91;100.00;99302.61;4931867;57;1138509;-85
2024/03/24 11:17:54;;;;;;;13.67;6.23;;;;;;;6.66;100.00;99304.27;4953038;57;1136686;-85
2024/03/24 11:23:01;;;;;;;5.10;3.53;;;;;;;6.41;100.00;99296.22;4887828;58;1136839;-84
2024/03/24 11:28:06;;;;;;;42.90;13.80;;;;;;;6.19;100.00;99283.11;5007160;57;1134349;-86
2024/03/24 11:33:14;;;;;;;8.13;4.63;;;;;;;6.23;100.00;99278.82;4906560;58;1140673;-87
2024/03/24 11:38:19;;;;;;;14.33;4.70;;;;;;;6.23;100.00;99278.82;4887448;59;1134356;-86
2024/03/24 11:43:25;;;;;;;13.40;4.77;;;;;;;6.35;100.00;99264.70;4951452;57;1138495;-86
2024/03/24 11:48:35;;;;;;;8.93;4.43;;;;;;;6.59;100.00;99264.98;4986163;57;1138675;-84
2024/03/24 11:53:41;;;;;;;14.38;5.72;;;;;;;6.78;100.00;99271.73;4933606;58;1134427;-82
2024/03/24 11:58:50;;;;;;;5.23;3.57;;;;;;;6.79;100.00;99276.03;4914137;58;1138551;-86
2024/03/24 12:03:56;;;;;;;8.63;5.03;;;;;;;6.69;100.00;99278.59;4915555;58;1134472;-87
2024/03/24 12:09:03;;;;;;;20.77;12.30;;;;;;;6.62;100.00;99272.62;4954989;58;1134478;-84
2024/03/24 12:14:09;;;;;;;35.83;15.58;;;;;;;6.65;100.00;99275.84;4915603;58;1138676;-88
2024/03/24 12:19:16;;;;;;;13.03;5.40;;;;;;;6.69;100.00;99264.61;4915193;58;1138760;-84
2024/03/24 12:24:23;;;;;;;10.00;4.70;;;;;;;6.73;100.00;99264.70;4993630;57;1136525;-87
2024/03/24 12:29:29;;;;;;;16.67;5.60;;;;;;;6.76;100.00;99260.98;4995327;57;1137582;-85
2024/03/24 12:34:35;;;;;;;8.20;3.47;;;;;;;6.79;100.00;99254.17;4995800;57;1136508;-86
2024/03/24 12:39:41;;;;;;;18.53;7.47;;;;;;;6.80;100.00;99254.05;5006844;57;1134683;-85
2024/03/24 12:44:47;;;;;;;14.40;4.83;;;;;;;6.93;100.00;99228.90;4839056;58;1136859;-87
2024/03/24 12:49:53;;;;;;;10.60;3.40;;;;;;;7.12;100.00;99227.72;4885093;58;1136389;-87
2024/03/24 12:54:59;;;;;;;8.57;3.77;;;;;;;7.16;100.00;99213.37;4934972;58;1136485;-84
2024/03/24 13:00:07;;;;;;;16.50;4.90;;;;;;;7.29;100.00;99224.52;4915650;58;1134444;-86
2024/03/24 13:05:16;;;;;;;6.93;3.77;;;;;;;7.44;100.00;99213.17;4915108;58;1136602;-84
2024/03/24 13:10:22;;;;;;;12.40;4.13;;;;;;;7.57;100.00;99215.58;4935118;58;1134446;-85
2024/03/24 13:15:32;;;;;;;13.97;5.80;;;;;;;7.67;100.00;99205.91;4915184;58;1136684;-85
2024/03/24 13:20:43;;;;;;;13.15;4.33;;;;;;;7.85;100.00;99206.95;4975160;58;1136191;-85
2024/03/24 13:25:57;;;;;;;6.37;3.17;;;;;;;8.04;100.00;99203.06;4988429;57;1137038;-84
2024/03/24 13:31:03;;;;;;;8.03;4.03;;;;;;;8.24;100.00;99201.80;5011380;57;1134497;-85
2024/03/24 13:36:16;;;;;;;9.97;4.00;;;;;;;8.33;100.00;99195.73;4995944;57;1134168;-87
2024/03/24 13:41:55;;;;;;;7.50;3.58;;;;;;;8.36;100.00;99191.03;4933506;58;1134270;-85
2024/03/24 13:47:31;;;;;;;8.30;2.57;;;;;;;8.44;100.00;99175.83;4888947;58;1137720;-86
2024/03/24 13:52:38;;;;;;;116.60;103.10;;;;;;;8.49;100.00;99176.27;4935451;58;1134579;-84
2024/03/24 13:57:44;;;;;;;162.75;112.83;;;;;;;8.39;100.00;99182.86;4947505;58;1142552;-86
2024/03/24 14:02:51;;;;;;;105.10;51.25;;;;;;;8.32;100.00;99186.16;4965961;58;1143042;-86
2024/03/24 14:07:57;;;;;;;42.80;18.53;;;;;;;8.16;100.00;99181.39;4985037;58;1141163;-85
2024/03/24 14:13:31;;;;;;;33.03;15.37;;;;;;;8.07;100.00;99180.91;4966308;58;1138587;-86
2024/03/24 14:19:02;;;;;;;;;;;;;;;7.80;100.00;99190.72;4970175;58;1138518;-85
2024/03/24 14:24:18;;;;;;;22.37;10.37;;;;;;;7.68;100.00;99188.69;4985008;58;971772;-85
2024/03/24 14:29:24;;;;;;;24.47;9.17;;;;;;;7.72;100.00;99172.15;4985585;58;1136382;-86
2024/03/24 14:34:30;;;;;;;21.68;7.47;;;;;;;7.80;100.00;99173.61;4979114;58;1136645;-85
2024/03/24 14:40:10;;;;;;;13.38;7.67;;;;;;;7.65;100.00;99170.52;5021826;56;1136534;-86
2024/03/24 14:45:23;;;;;;;30.17;15.67;;;;;;;7.47;100.00;99185.77;4947720;57;1136956;-87
2024/03/24 14:50:29;;;;;;;16.63;8.53;;;;;;;7.28;100.00;99171.56;4940267;57;1138518;-83
2024/03/24 14:55:34;;;;;;;23.50;10.33;;;;;;;7.22;100.00;99168.13;4966350;58;1136753;-83
2024/03/24 15:00:40;;;;;;;9.77;5.77;;;;;;;7.17;100.00;99165.08;4966916;58;1138608;-84
2024/03/24 15:05:46;;;;;;;41.85;21.10;;;;;;;7.13;100.00;99165.46;4967330;58;1134615;-83
2024/03/24 15:10:51;;;;;;;17.40;8.97;;;;;;;7.07;100.00;99156.28;4973010;57;1138269;-86
2024/03/24 15:15:57;;;;;;;25.43;18.23;;;;;;;7.06;100.00;99162.50;4951014;57;1138597;-86
2024/03/24 15:21:03;;;;;;;6.43;4.30;;;;;;;6.98;100.00;99159.70;5008890;57;1138407;-85
2024/03/24 15:26:09;;;;;;;29.87;12.43;;;;;;;6.93;100.00;99164.50;4980662;57;1134706;-87
2024/03/24 15:31:14;;;;;;;8.33;6.17;;;;;;;6.96;100.00;99161.63;4937634;57;1140748;-85
2024/03/24 15:36:20;;;;;;;16.03;12.27;;;;;;;6.98;100.00;99155.77;4953693;57;1134843;-84
2024/03/24 15:41:26;;;;;;;12.73;8.17;;;;;;;6.96;100.00;99157.20;4956501;57;1138401;-85
2024/03/24 15:46:32;;;;;;;18.15;10.55;;;;;;;6.99;100.00;99156.95;4885185;57;1138549;-85
2024/03/24 15:51:38;;;;;;;47.62;24.12;;;;;;;7.04;100.00;99153.91;4932520;57;1138636;-83
2024/03/24 15:57:08;;;;;;;22.77;10.15;;;;;;;7.06;100.00;99145.42;4993271;57;1138870;-85
2024/03/24 16:02:26;;;;;;;77.87;30.57;;;;;;;7.04;100.00;99136.34;4917470;57;1140612;-86
2024/03/24 16:07:41;;;;;;;10.32;5.33;;;;;;;7.09;100.00;99158.31;4951652;57;1139024;-86
2024/03/24 16:13:06;;;;;;;4.35;2.45;;;;;;;6.71;100.00;99147.09;4910857;57;1136494;-90
2024/03/24 16:18:12;;;;;;;4.53;3.73;;;;;;;6.38;100.00;99165.16;5017947;57;1134437;-84
2024/03/24 16:23:17;;;;;;;18.80;13.00;;;;;;;6.12;100.00;99163.31;4987093;58;1136436;-84
2024/03/24 16:28:23;;;;;;;26.37;13.70;;;;;;;6.11;100.00;99168.21;4921477;57;1140793;-85
2024/03/24 16:33:29;;;;;;;29.23;17.17;;;;;;;6.16;100.00;99152.94;4967569;57;1138387;-86
2024/03/24 16:38:35;;;;;;;39.30;17.83;;;;;;;6.26;100.00;99151.22;4991459;57;1138705;-87
2024/03/24 16:43:42;;;;;;;48.30;21.60;;;;;;;6.34;100.00;99140.10;4962188;57;1140932;-89
2024/03/24 16:48:47;;;;;;;111.90;63.13;;;;;;;6.42;100.00;99142.08;4887779;59;1140956;-87
2024/03/24 16:53:53;;;;;;;28.12;16.93;;;;;;;6.53;100.00;99135.01;4945318;58;1142943;-87
2024/03/24 16:58:58;;;;;;;10.67;7.27;;;;;;;6.57;100.00;99127.20;4966736;58;1140831;-86
2024/03/24 17:04:04;;;;;;;15.08;12.65;;;;;;;6.60;100.00;99132.20;4954557;57;1138981;-85
2024/03/24 17:09:11;;;;;;;13.37;6.53;;;;;;;6.55;100.00;99133.56;4936865;57;1138771;-85
2024/03/24 17:14:18;;;;;;;20.00;9.13;;;;;;;6.52;100.00;99129.88;5012361;57;1138571;-84
2024/03/24 17:19:24;;;;;;;15.33;8.20;;;;;;;6.49;100.00;99135.38;4942380;57;1138583;-86
2024/03/24 17:24:29;;;;;;;61.27;31.60;;;;;;;6.50;100.00;99144.45;4935879;57;1138553;-83
2024/03/24 17:29:35;;;;;;;60.37;26.77;;;;;;;6.52;100.00;99150.41;4955287;57;1140729;-85
2024/03/24 17:34:40;;;;;;;20.76;9.56;;;;;;;6.40;100.00;99150.59;4940874;57;1138601;-84
2024/03/24 17:39:46;;;;;;;190.00;36.28;;;;;;;6.23;100.00;99157.22;4990108;57;1138491;-86
2024/03/24 17:44:52;;;;;;;80.60;22.85;;;;;;;6.20;100.00;99155.67;4896275;57;1142906;-84
2024/03/24 17:49:58;;;;;;;33.97;14.27;;;;;;;6.23;100.00;99161.99;4906412;58;1140651;-85
2024/03/24 17:55:04;;;;;;;70.93;30.63;;;;;;;6.23;100.00;99155.91;4957842;58;1140854;-87
2024/03/24 18:00:11;;;;;;;49.07;22.13;;;;;;;6.16;100.00;99155.56;4999161;57;1138589;-86
2024/03/24 18:05:18;;;;;;;28.67;13.93;;;;;;;6.10;100.00;99148.67;5067951;57;1138680;-87
2024/03/24 18:10:25;;;;;;;28.33;10.07;;;;;;;6.05;100.00;99148.20;5047857;57;1140736;-83
2024/03/24 18:15:35;;;;;;;30.33;12.30;;;;;;;6.09;100.00;99146.53;5048642;57;1141079;-84
2024/03/24 18:20:41;;;;;;;26.42;10.65;;;;;;;6.19;100.00;99145.30;5041261;57;1140643;-85
2024/03/24 18:25:46;;;;;;;24.13;11.97;;;;;;;6.25;100.00;99148.27;4952218;57;1140550;-85
2024/03/24 18:30:52;;;;;;;32.97;16.07;;;;;;;6.26;100.00;99149.10;4963200;58;1140731;-84
2024/03/24 18:35:58;;;;;;;36.30;16.73;;;;;;;6.26;100.00;99147.78;4981555;58;1138809;-83
2024/03/24 18:41:04;;;;;;;15.67;8.10;;;;;;;6.22;100.00;99149.83;4957630;57;1138907;-83
2024/03/24 18:46:09;;;;;;;17.57;10.40;;;;;;;6.17;100.00;99147.20;4948083;58;1136308;-84
2024/03/24 18:51:15;;;;;;;25.97;14.27;;;;;;;6.09;100.00;99143.91;4969240;58;1140774;-86
2024/03/24 18:56:22;;;;;;;15.23;8.13;;;;;;;6.12;100.00;99148.05;4989916;57;1140787;-86
2024/03/24 19:01:30;;;;;;;96.10;51.00;;;;;;;6.12;100.00;99146.25;4976794;57;1138582;-83
2024/03/24 19:06:35;;;;;;;167.35;75.37;;;;;;;6.10;100.00;99147.36;4986438;58;1140844;-86
2024/03/24 19:11:41;;;;;;;247.95;105.60;;;;;;;5.99;100.00;99126.73;4966904;57;1142921;-85
2024/03/24 19:16:47;;;;;;;58.83;27.47;;;;;;;6.02;100.00;99145.34;4967186;58;1142822;-89
2024/03/24 19:21:54;;;;;;;87.23;32.93;;;;;;;6.00;100.00;99143.31;4982549;57;1138723;-84
2024/03/24 19:27:00;;;;;;;139.53;45.17;;;;;;;5.97;100.00;99136.52;5048324;57;1138689;-84
2024/03/24 19:32:07;;;;;;;61.00;19.97;;;;;;;5.93;100.00;99137.75;5028381;57;1142507;-85
2024/03/24 19:37:13;;;;;;;58.23;18.33;;;;;;;5.96;100.00;99137.95;5028244;57;1140743;-86
2024/03/24 19:42:19;;;;;;;84.27;30.17;;;;;;;6.00;100.00;99139.37;5011646;57;1140561;-83
2024/03/24 19:47:28;;;;;;;202.27;56.07;;;;;;;5.99;100.00;99136.41;4966657;58;1140610;-85
2024/03/24 19:52:47;;;;;;;138.80;42.87;;;;;;;5.87;100.00;99139.51;5000539;57;1140913;-88
2024/03/24 19:57:55;;;;;;;74.17;26.73;;;;;;;5.77;100.00;99134.66;5048599;57;1140910;-85
2024/03/24 20:03:00;;;;;;;67.80;24.37;;;;;;;5.66;100.00;99126.78;5063649;57;1140680;-86
2024/03/24 20:08:07;;;;;;;47.63;14.77;;;;;;;5.59;100.00;99129.55;5048168;57;1140951;-85
2024/03/24 20:13:12;;;;;;;83.50;25.90;;;;;;;5.58;100.00;99120.02;5047793;57;1140753;-85
2024/03/24 20:18:18;;;;;;;53.80;18.63;;;;;;;5.58;100.00;99120.84;5062045;57;1140784;-86
2024/03/24 20:23:25;;;;;;;75.87;25.03;;;;;;;5.56;100.00;99121.92;5029234;57;1140782;-84
2024/03/24 20:28:31;;;;;;;39.77;12.87;;;;;;;5.51;100.00;99118.81;5028650;57;1138482;-86
2024/03/24 20:33:37;;;;;;;53.17;15.58;;;;;;;5.49;100.00;99117.66;5051191;57;1140687;-82
2024/03/24 20:38:43;;;;;;;65.97;20.67;;;;;;;5.39;100.00;99099.65;5029182;57;1140810;-83
2024/03/24 20:43:50;;;;;;;42.08;17.00;;;;;;;5.50;100.00;99110.63;4974565;57;1141036;-86
2024/03/24 20:48:56;;;;;;;51.27;19.00;;;;;;;5.48;100.00;99106.81;5011576;57;1138459;-87
2024/03/24 20:54:04;;;;;;;100.72;39.05;;;;;;;5.48;100.00;99106.81;4931901;57;1138602;-85
2024/03/24 20:59:10;;;;;;;80.87;32.93;;;;;;;5.47;100.00;99101.20;4886911;59;1142920;-86
2024/03/24 21:04:16;;;;;;;49.67;19.17;;;;;;;5.48;100.00;99096.32;4906791;59;1140723;-86
2024/03/24 21:09:21;;;;;;;48.13;21.50;;;;;;;5.57;100.00;99092.12;4879434;59;1140922;-83
2024/03/24 21:14:28;;;;;;;66.20;29.30;;;;;;;5.63;100.00;99096.41;4858700;58;1140734;-85
2024/03/24 21:19:36;;;;;;;26.27;12.87;;;;;;;5.65;100.00;99083.98;4935303;58;1138547;-87
2024/03/24 21:24:41;;;;;;;34.57;15.80;;;;;;;5.59;100.00;99078.41;4915780;58;1149921;-84
2024/03/24 21:29:47;;;;;;;42.37;17.13;;;;;;;5.54;100.00;99076.63;4914673;58;1140778;-86
2024/03/24 21:34:54;;;;;;;32.13;15.83;;;;;;;5.49;100.00;99070.45;4911376;58;1140980;-85
2024/03/24 21:44:57;;;;;;;19.27;9.13;;;;;;;5.53;100.00;99056.60;5270903;54;56281;-84
2024/03/24 21:50:03;;;;;;;28.20;11.70;;;;;;;5.50;100.00;99053.73;5033187;56;1132477;-84
2024/03/24 21:55:09;;;;;;;26.33;10.10;;;;;;;5.54;100.00;99053.86;5123137;56;1140482;-85
2024/03/24 22:00:16;;;;;;;13.57;7.50;;;;;;;5.59;100.00;99053.02;5147608;54;1140607;-85
2024/03/24 22:05:22;;;;;;;12.73;7.03;;;;;;;5.65;100.00;99050.39;5210232;55;1138851;-84
2024/03/24 22:10:28;;;;;;;17.48;9.20;;;;;;;5.63;100.00;99055.76;5162474;55;1136556;-83
2024/03/24 22:15:33;;;;;;;26.10;11.07;;;;;;;5.63;100.00;99058.38;5038237;57;1136697;-85
2024/03/24 22:20:39;;;;;;;41.77;18.87;;;;;;;5.59;100.00;99058.27;5094728;56;1138314;-83
2024/03/24 22:25:45;;;;;;;27.37;12.63;;;;;;;5.47;100.00;99047.94;5106161;56;1141742;-86
2024/03/24 22:30:51;;;;;;;22.30;10.40;;;;;;;5.36;100.00;99050.55;5121282;56;1140531;-86
2024/03/24 22:35:57;;;;;;;15.10;7.93;;;;;;;5.32;100.00;99035.57;5086463;57;1141100;-86
2024/03/24 22:41:03;;;;;;;18.40;10.37;;;;;;;5.26;100.00;99033.42;5101476;56;1138365;-86
2024/03/24 22:46:09;;;;;;;10.93;6.67;;;;;;;5.25;100.00;99036.52;5090813;56;1140460;-87
2024/03/24 22:51:14;;;;;;;8.78;6.25;;;;;;;5.22;100.00;99035.92;5060779;56;1136454;-88
2024/03/24 22:56:20;;;;;;;10.57;5.70;;;;;;;5.18;100.00;99030.59;5078682;56;1134728;-87
2024/03/24 23:01:26;;;;;;;11.97;7.97;;;;;;;5.15;100.00;99028.20;5100258;56;1136293;-86
2024/03/24 23:06:34;;;;;;;8.93;6.23;;;;;;;5.17;100.00;99035.47;5079277;56;1138413;-89
2024/03/24 23:11:41;;;;;;;19.00;8.70;;;;;;;5.09;100.00;99029.52;5053935;56;1136642;-87
2024/03/24 23:16:46;;;;;;;10.70;6.23;;;;;;;4.99;100.00;99012.02;5042989;56;1138612;-86
2024/03/24 23:21:53;;;;;;;13.75;6.97;;;;;;;5.13;100.00;99028.33;5077387;56;1138489;-87